createdAt,value
2023-01-22T00:00:06.985Z,28.83
2023-01-22T00:02:38.790Z,29.20
2023-01-22T00:05:12.022Z,26.90
2023-01-22T00:07:42.775Z,28.00
2023-01-22T00:10:17.344Z,25.67
2023-01-22T00:12:48.432Z,30.13
2023-01-22T00:15:19.552Z,27.85
2023-01-22T00:17:50.358Z,28.30
2023-01-22T00:20:21.265Z,26.52
2023-01-22T00:22:51.995Z,27.08
2023-01-22T00:25:25.722Z,26.98
2023-01-22T00:27:59.621Z,23.85
2023-01-22T00:30:32.882Z,23.25
2023-01-22T00:33:03.735Z,27.15
2023-01-22T00:35:36.228Z,25.63
2023-01-22T00:38:07.072Z,24.10
2023-01-22T00:40:40.478Z,22.55
2023-01-22T00:43:11.186Z,22.85
2023-01-22T00:45:41.886Z,24.10
2023-01-22T00:48:14.437Z,24.05
2023-01-22T00:50:45.208Z,25.15
2023-01-22T00:53:16.243Z,22.55
2023-01-22T00:55:56.802Z,22.67
2023-01-22T00:58:31.234Z,24.50
2023-01-22T01:01:03.828Z,25.58
2023-01-22T01:03:35.617Z,25.00
2023-01-22T01:06:08.357Z,25.35
2023-01-22T01:08:43.174Z,23.55
2023-01-22T01:11:19.134Z,24.27
2023-01-22T01:13:50.114Z,20.85
2023-01-22T01:16:23.736Z,22.90
2023-01-22T01:18:54.745Z,22.10
2023-01-22T01:21:25.489Z,20.15
2023-01-22T01:23:59.919Z,22.02
2023-01-22T01:26:33.542Z,24.88
2023-01-22T01:29:05.039Z,20.40
2023-01-22T01:31:35.851Z,24.23
2023-01-22T01:34:07.368Z,22.95
2023-01-22T01:36:48.832Z,23.27
2023-01-22T01:39:20.278Z,21.08
2023-01-22T01:41:53.749Z,21.35
2023-01-22T01:44:27.374Z,24.42
2023-01-22T01:47:05.313Z,21.75
2023-01-22T01:49:40.219Z,21.10
2023-01-22T01:52:14.253Z,19.05
2023-01-22T01:54:48.119Z,21.58
2023-01-22T01:57:27.785Z,20.27
2023-01-22T02:00:00.594Z,24.33
2023-01-22T02:02:34.344Z,19.30
2023-01-22T02:05:06.292Z,20.02
2023-01-22T02:07:37.131Z,22.73
2023-01-22T02:10:08.849Z,22.08
2023-01-22T02:12:42.181Z,22.10
2023-01-22T02:15:16.389Z,22.45
2023-01-22T02:17:48.343Z,21.00
2023-01-22T02:20:19.881Z,22.45
2023-01-22T02:22:53.696Z,23.20
2023-01-22T02:25:28.247Z,21.60
2023-01-22T02:28:01.293Z,21.60
2023-01-22T02:30:34.124Z,18.33
2023-01-22T02:33:04.857Z,19.60
2023-01-22T02:35:35.552Z,19.58
2023-01-22T02:38:09.164Z,20.15
2023-01-22T02:40:49.354Z,18.60
2023-01-22T02:43:20.406Z,20.95
2023-01-22T02:45:51.205Z,21.27
2023-01-22T02:48:21.961Z,22.85
2023-01-22T02:50:52.817Z,19.90
2023-01-22T02:53:26.271Z,22.40
2023-01-22T02:55:57.083Z,21.38
2023-01-22T02:58:27.940Z,23.17
2023-01-22T03:00:58.708Z,18.92
2023-01-22T03:03:32.435Z,18.77
2023-01-22T03:06:03.270Z,22.08
2023-01-22T03:08:36.596Z,17.95
2023-01-22T03:11:07.327Z,20.45
2023-01-22T03:13:50.649Z,20.58
2023-01-22T03:16:34.001Z,20.63
2023-01-22T03:19:18.301Z,17.00
2023-01-22T03:21:49.121Z,18.25
2023-01-22T03:24:22.661Z,18.88
2023-01-22T03:26:54.653Z,18.35
2023-01-22T03:29:25.839Z,20.15
2023-01-22T03:31:56.916Z,18.20
2023-01-22T03:34:29.902Z,18.75
2023-01-22T03:37:00.771Z,20.52
2023-01-22T03:39:35.042Z,21.60
2023-01-22T03:42:05.776Z,20.48
2023-01-22T03:44:36.628Z,22.35
2023-01-22T03:47:07.469Z,24.08
2023-01-22T03:49:38.275Z,25.38
2023-01-22T03:52:09.014Z,25.65
2023-01-22T03:54:42.361Z,24.98
2023-01-22T03:57:16.173Z,21.30
2023-01-22T03:59:46.907Z,23.55
2023-01-22T04:02:20.258Z,26.92
2023-01-22T04:04:51.516Z,24.38
2023-01-22T04:07:22.436Z,25.52
2023-01-22T04:09:55.762Z,25.35
2023-01-22T04:12:26.513Z,24.73
2023-01-22T04:14:57.480Z,24.27
2023-01-22T04:17:28.511Z,24.52
2023-01-22T04:19:59.330Z,24.77
2023-01-22T04:22:30.047Z,25.40
2023-01-22T04:25:03.310Z,23.35
2023-01-22T04:27:37.684Z,24.05
2023-01-22T04:30:10.117Z,24.55
2023-01-22T04:32:40.819Z,25.73
2023-01-22T04:35:12.253Z,25.52
2023-01-22T04:37:43.589Z,26.23
2023-01-22T04:40:18.085Z,27.05
2023-01-22T04:42:51.781Z,24.63
2023-01-22T04:45:25.225Z,25.13
2023-01-22T04:47:55.922Z,26.65
2023-01-22T04:50:31.498Z,24.05
2023-01-22T04:53:05.863Z,26.77
2023-01-22T04:55:42.741Z,28.75
2023-01-22T04:58:13.456Z,27.73
2023-01-22T05:00:44.360Z,26.30
2023-01-22T05:03:15.192Z,28.38
2023-01-22T05:05:46.064Z,26.60
2023-01-22T05:08:16.933Z,26.48
2023-01-22T05:10:53.733Z,28.40
2023-01-22T05:13:24.472Z,29.38
2023-01-22T05:15:55.402Z,28.05
2023-01-22T05:18:26.112Z,26.40
2023-01-22T05:20:56.863Z,28.20
2023-01-22T05:23:28.059Z,31.70
2023-01-22T05:26:01.368Z,24.42
2023-01-22T05:28:32.376Z,28.08
2023-01-22T05:31:03.175Z,27.65
2023-01-22T05:33:34.812Z,28.02
2023-01-22T05:36:06.228Z,30.33
2023-01-22T05:38:37.627Z,27.30
2023-01-22T05:41:11.482Z,24.27
2023-01-22T05:43:42.720Z,26.98
2023-01-22T05:46:13.886Z,27.33
2023-01-22T05:48:44.654Z,26.92
2023-01-22T05:51:15.450Z,24.50
2023-01-22T05:53:46.285Z,26.98
2023-01-22T05:56:20.484Z,24.13
2023-01-22T05:58:54.471Z,30.15
2023-01-22T06:01:29.143Z,25.65
2023-01-22T06:03:59.876Z,25.02
2023-01-22T06:06:30.756Z,25.73
2023-01-22T06:09:02.612Z,23.38
2023-01-22T06:11:35.886Z,24.80
2023-01-22T06:14:06.688Z,25.13
2023-01-22T06:16:37.468Z,22.45
2023-01-22T06:19:10.033Z,24.38
2023-01-22T06:21:40.898Z,23.10
2023-01-22T06:24:14.296Z,23.95
2023-01-22T06:26:47.595Z,23.40
2023-01-22T06:29:18.435Z,22.77
2023-01-22T06:31:50.591Z,22.08
2023-01-22T06:34:21.445Z,24.60
2023-01-22T06:36:52.222Z,23.10
2023-01-22T06:39:22.901Z,26.17
2023-01-22T06:41:56.257Z,24.13
2023-01-22T06:44:26.951Z,23.33
2023-01-22T06:46:57.674Z,27.40
2023-01-22T06:49:28.410Z,22.20
2023-01-22T06:51:59.184Z,26.83
2023-01-22T06:54:31.280Z,23.15
2023-01-22T06:57:05.621Z,24.50
2023-01-22T06:59:39.048Z,22.15
2023-01-22T07:02:18.601Z,22.70
2023-01-22T07:04:49.293Z,23.20
2023-01-22T07:07:22.796Z,24.17
2023-01-22T07:09:53.692Z,23.55
2023-01-22T07:12:27.169Z,24.33
2023-01-22T07:14:57.874Z,24.67
2023-01-22T07:17:28.620Z,20.00
2023-01-22T07:19:59.269Z,21.02
2023-01-22T07:22:30.268Z,20.83
2023-01-22T07:25:01.007Z,22.38
2023-01-22T07:27:36.875Z,20.90
2023-01-22T07:30:08.931Z,23.98
2023-01-22T07:32:39.594Z,22.40
2023-01-22T07:35:15.691Z,23.42
2023-01-22T07:37:46.442Z,23.17
2023-01-22T07:40:20.287Z,22.83
2023-01-22T07:42:54.354Z,27.10
2023-01-22T07:45:26.102Z,27.30
2023-01-22T07:47:58.843Z,25.55
2023-01-22T07:50:32.077Z,28.15
2023-01-22T07:53:03.252Z,28.75
2023-01-22T07:55:34.121Z,25.80
2023-01-22T07:58:11.774Z,25.85
2023-01-22T08:00:42.612Z,29.70
2023-01-22T08:03:14.557Z,27.73
2023-01-22T08:05:45.937Z,26.55
2023-01-22T08:08:18.588Z,28.38
2023-01-22T08:10:49.442Z,27.88
2023-01-22T08:13:25.942Z,27.77
2023-01-22T08:15:58.500Z,26.00
2023-01-22T08:18:29.245Z,23.13
2023-01-22T08:21:02.988Z,29.70
2023-01-22T08:23:33.853Z,32.30
2023-01-22T08:26:06.066Z,28.65
2023-01-22T08:28:39.735Z,27.80
2023-01-22T08:31:19.287Z,25.10
2023-01-22T08:33:53.648Z,28.65
2023-01-22T08:36:24.381Z,31.10
2023-01-22T08:38:55.368Z,26.98
2023-01-22T08:41:26.853Z,29.90
2023-01-22T08:44:00.260Z,27.15
2023-01-22T08:46:31.199Z,26.45
2023-01-22T08:49:05.825Z,28.90
2023-01-22T08:51:36.984Z,26.33
2023-01-22T08:54:08.415Z,25.67
2023-01-22T08:56:39.502Z,28.52
2023-01-22T08:59:15.460Z,26.60
2023-01-22T09:01:46.363Z,29.10
2023-01-22T09:04:20.190Z,29.75
2023-01-22T09:06:54.088Z,27.08
2023-01-22T09:09:25.334Z,25.42
2023-01-22T09:11:56.006Z,27.05
2023-01-22T09:14:31.286Z,26.50
2023-01-22T09:17:02.035Z,25.05
2023-01-22T09:19:34.990Z,25.17
2023-01-22T09:22:07.608Z,26.50
2023-01-22T09:24:38.331Z,27.60
2023-01-22T09:27:09.153Z,22.88
2023-01-22T09:29:43.036Z,23.30
2023-01-22T09:32:13.909Z,24.45
2023-01-22T09:34:44.675Z,21.05
2023-01-22T09:37:35.212Z,21.83
2023-01-22T09:40:26.296Z,22.92
2023-01-22T09:43:06.035Z,23.25
2023-01-22T09:45:44.783Z,25.70
2023-01-22T09:48:17.926Z,22.35
2023-01-22T09:50:49.553Z,22.45
2023-01-22T09:53:23.315Z,22.90
2023-01-22T09:55:57.654Z,24.20
2023-01-22T09:58:29.244Z,24.20
2023-01-22T10:01:07.589Z,24.20
2023-01-22T10:03:42.147Z,23.80
2023-01-22T10:06:18.354Z,21.67
2023-01-22T10:08:58.662Z,22.20
2023-01-22T10:11:29.455Z,23.02
2023-01-22T10:14:03.791Z,21.65
2023-01-22T10:16:37.314Z,23.13
2023-01-22T10:19:18.203Z,21.67
2023-01-22T10:21:52.128Z,20.50
2023-01-22T10:24:23.108Z,19.80
2023-01-22T10:26:55.432Z,23.50
2023-01-22T10:29:33.455Z,22.40
2023-01-22T10:32:23.754Z,20.20
2023-01-22T10:35:06.269Z,20.58
2023-01-22T10:37:46.887Z,19.80
2023-01-22T10:40:26.671Z,18.58
2023-01-22T10:43:09.186Z,20.73
2023-01-22T10:45:40.073Z,19.33
2023-01-22T10:48:20.962Z,22.47
2023-01-22T10:51:04.122Z,19.17
2023-01-22T10:53:37.720Z,21.00
2023-01-22T10:56:12.774Z,23.10
2023-01-22T10:58:50.751Z,25.27
2023-01-22T11:01:34.216Z,20.83
2023-01-22T11:04:23.058Z,19.83
2023-01-22T11:06:56.397Z,22.73
2023-01-22T11:09:41.529Z,19.90
2023-01-22T11:12:19.028Z,22.77
2023-01-22T11:14:53.297Z,21.37
2023-01-22T11:17:32.356Z,20.98
2023-01-22T11:20:13.947Z,25.02
2023-01-22T11:22:47.982Z,23.13
2023-01-22T11:25:18.822Z,22.00
2023-01-22T11:28:04.035Z,21.25
2023-01-22T11:31:01.337Z,20.48
2023-01-22T11:33:52.406Z,18.48
2023-01-22T11:36:30.008Z,18.35
2023-01-22T11:39:05.602Z,21.02
2023-01-22T11:41:56.492Z,18.95
2023-01-22T11:44:49.187Z,22.50
2023-01-22T11:47:42.612Z,19.90
2023-01-22T11:50:28.029Z,20.27
2023-01-22T11:53:16.218Z,23.30
2023-01-22T11:56:04.940Z,20.10
2023-01-22T11:58:44.516Z,22.30
2023-01-22T12:01:27.010Z,20.15
2023-01-22T12:04:13.194Z,18.08
2023-01-22T12:07:01.555Z,18.80
2023-01-22T12:09:50.064Z,19.65
2023-01-22T12:12:41.600Z,21.95
2023-01-22T12:15:30.663Z,18.33
2023-01-22T12:18:22.043Z,18.85
2023-01-22T12:21:09.829Z,19.52
2023-01-22T12:23:51.065Z,20.13
2023-01-22T12:26:29.889Z,20.65
2023-01-22T12:29:09.045Z,20.40
2023-01-22T12:31:45.976Z,25.38
2023-01-22T12:34:21.754Z,20.90
2023-01-22T12:37:32.485Z,19.83
2023-01-22T12:40:19.918Z,19.80
2023-01-22T12:43:01.488Z,22.30
2023-01-22T12:45:44.653Z,28.25
2023-01-22T12:48:27.087Z,34.25
2023-01-22T12:51:00.322Z,29.73
2023-01-22T12:53:35.514Z,29.38
2023-01-22T12:56:10.143Z,27.23
2023-01-22T12:58:45.370Z,32.35
2023-01-22T13:01:26.737Z,28.13
2023-01-22T13:04:02.890Z,23.27
2023-01-22T13:06:44.069Z,26.58
2023-01-22T13:09:29.178Z,31.42
2023-01-22T13:12:11.270Z,25.02
2023-01-22T13:14:46.399Z,28.00
2023-01-22T13:17:22.064Z,30.10
2023-01-22T13:19:53.976Z,27.30
2023-01-22T13:22:27.049Z,28.85
2023-01-22T13:24:59.443Z,28.92
2023-01-22T13:27:32.387Z,26.42
2023-01-22T13:30:18.787Z,30.08
2023-01-22T13:32:50.117Z,26.60
2023-01-22T13:35:21.134Z,28.80
2023-01-22T13:37:54.300Z,28.05
2023-01-22T13:40:27.988Z,34.63
2023-01-22T13:43:00.988Z,30.65
2023-01-22T13:45:36.258Z,42.67
2023-01-22T13:48:08.164Z,37.22
2023-01-22T13:50:39.707Z,37.90
2023-01-22T13:53:20.361Z,39.33
2023-01-22T13:55:51.122Z,36.67
2023-01-22T13:58:47.863Z,35.78
2023-01-22T14:01:34.035Z,32.78
2023-01-22T14:04:07.347Z,33.33
2023-01-22T14:06:49.730Z,32.97
2023-01-22T14:09:28.746Z,34.42
2023-01-22T14:12:00.611Z,31.80
2023-01-22T14:14:44.948Z,48.42
2023-01-22T14:17:34.200Z,49.28
2023-01-22T14:20:05.618Z,33.95
2023-01-22T14:22:36.408Z,30.67
2023-01-22T14:25:08.617Z,34.83
2023-01-22T14:27:45.076Z,29.98
2023-01-22T14:30:19.616Z,29.20
2023-01-22T14:32:55.394Z,30.70
2023-01-22T14:35:27.971Z,33.22
2023-01-22T14:37:59.130Z,29.60
2023-01-22T14:40:31.019Z,30.23
2023-01-22T14:43:02.658Z,30.63
2023-01-22T14:45:36.639Z,32.60
2023-01-22T14:48:14.755Z,30.73
2023-01-22T14:50:46.401Z,31.55
2023-01-22T14:53:17.991Z,38.95
2023-01-22T14:55:48.912Z,34.42
2023-01-22T14:58:19.655Z,40.03
2023-01-22T15:00:53.322Z,35.10
2023-01-22T15:03:26.704Z,32.63
2023-01-22T15:05:58.663Z,31.10
2023-01-22T15:08:29.640Z,30.50
2023-01-22T15:11:02.331Z,34.50
2023-01-22T15:13:33.066Z,30.73
2023-01-22T15:16:08.629Z,29.48
2023-01-22T15:18:42.387Z,28.17
2023-01-22T15:21:13.490Z,30.02
2023-01-22T15:23:44.187Z,34.60
2023-01-22T15:26:27.203Z,29.17
2023-01-22T15:29:01.334Z,38.88
2023-01-22T15:31:32.306Z,34.53
2023-01-22T15:34:06.097Z,31.63
2023-01-22T15:36:41.492Z,37.90
2023-01-22T15:39:12.254Z,35.10
2023-01-22T15:41:43.059Z,38.08
2023-01-22T15:44:16.204Z,40.50
2023-01-22T15:46:47.397Z,38.05
2023-01-22T15:49:21.917Z,35.08
2023-01-22T15:51:52.922Z,35.33
2023-01-22T15:54:25.736Z,33.60
2023-01-22T15:56:56.668Z,35.08
2023-01-22T15:59:27.365Z,36.80
2023-01-22T16:01:58.227Z,33.42
2023-01-22T16:04:31.524Z,32.42
2023-01-22T16:07:02.339Z,35.40
2023-01-22T16:09:33.158Z,29.80
2023-01-22T16:12:03.853Z,37.67
2023-01-22T16:14:35.650Z,27.15
2023-01-22T16:17:11.640Z,34.95
2023-01-22T16:19:45.227Z,39.13
2023-01-22T16:22:16.090Z,31.95
2023-01-22T16:24:46.812Z,31.42
2023-01-22T16:27:17.987Z,34.28
2023-01-22T16:29:48.684Z,32.97
2023-01-22T16:32:19.389Z,33.92
2023-01-22T16:34:52.922Z,32.50
2023-01-22T16:37:23.689Z,36.83
2023-01-22T16:39:54.515Z,31.23
2023-01-22T16:42:25.222Z,36.53
2023-01-22T16:44:55.993Z,32.65
2023-01-22T16:47:26.798Z,33.00
2023-01-22T16:50:00.122Z,33.25
2023-01-22T16:52:32.093Z,33.72
2023-01-22T16:55:04.258Z,30.73
2023-01-22T16:57:43.981Z,33.03
2023-01-22T17:00:15.721Z,35.17
2023-01-22T17:02:46.527Z,35.88
2023-01-22T17:05:19.908Z,34.47
2023-01-22T17:07:49.694Z,35.22
2023-01-22T17:10:21.092Z,37.03
2023-01-22T17:12:51.943Z,30.03
2023-01-22T17:15:22.811Z,41.83
2023-01-22T17:17:53.624Z,36.00
2023-01-22T17:20:27.077Z,34.78
2023-01-22T17:22:58.121Z,36.87
2023-01-22T17:25:28.941Z,39.55
2023-01-22T17:27:59.772Z,37.63
2023-01-22T17:30:32.659Z,39.35
2023-01-22T17:33:05.052Z,38.00
2023-01-22T17:35:38.397Z,33.20
2023-01-22T17:38:10.530Z,34.23
2023-01-22T17:40:42.237Z,32.40
2023-01-22T17:43:15.418Z,36.33
2023-01-22T17:45:46.206Z,36.03
2023-01-22T17:48:17.102Z,39.40
2023-01-22T17:50:51.484Z,37.33
2023-01-22T17:53:24.373Z,34.17
2023-01-22T17:55:58.106Z,36.60
2023-01-22T17:58:28.800Z,36.10
2023-01-22T18:01:04.831Z,34.70
2023-01-22T18:03:38.220Z,31.95
2023-01-22T18:06:12.496Z,36.33
2023-01-22T18:08:46.041Z,30.52
2023-01-22T18:11:22.234Z,32.50
2023-01-22T18:13:53.253Z,33.27
2023-01-22T18:16:24.035Z,32.00
2023-01-22T18:18:56.965Z,31.20
2023-01-22T18:21:30.377Z,37.42
2023-01-22T18:24:02.993Z,32.63
2023-01-22T18:26:34.256Z,31.17
2023-01-22T18:29:06.268Z,33.05
2023-01-22T18:31:38.028Z,34.90
2023-01-22T18:34:17.117Z,31.58
2023-01-22T18:36:50.586Z,34.72
2023-01-22T18:39:22.417Z,33.40
2023-01-22T18:41:56.313Z,32.33
2023-01-22T18:44:29.155Z,32.00
2023-01-22T18:47:01.755Z,31.47
2023-01-22T18:49:32.465Z,27.17
2023-01-22T18:52:08.600Z,29.07
2023-01-22T18:54:39.653Z,27.80
2023-01-22T18:57:10.425Z,28.53
2023-01-22T18:59:41.604Z,26.43
2023-01-22T19:02:16.079Z,28.55
2023-01-22T19:04:46.806Z,33.10
2023-01-22T19:07:20.166Z,28.08
2023-01-22T19:09:51.869Z,28.58
2023-01-22T19:12:27.665Z,31.27
2023-01-22T19:14:58.452Z,31.73
2023-01-22T19:17:29.258Z,24.40
2023-01-22T19:20:01.460Z,27.35
2023-01-22T19:22:34.734Z,26.77
2023-01-22T19:25:08.789Z,26.00
2023-01-22T19:27:42.641Z,29.63
2023-01-22T19:30:14.846Z,29.43
2023-01-22T19:32:45.787Z,27.67
2023-01-22T19:35:18.049Z,29.60
2023-01-22T19:37:51.804Z,24.33
2023-01-22T19:40:23.770Z,25.85
2023-01-22T19:42:55.098Z,27.05
2023-01-22T19:45:27.624Z,27.73
2023-01-22T19:47:59.282Z,27.38
2023-01-22T19:50:30.097Z,26.27
2023-01-22T19:53:03.589Z,25.37
2023-01-22T19:55:38.694Z,32.00
2023-01-22T19:58:15.281Z,27.83
2023-01-22T20:00:49.403Z,25.90
2023-01-22T20:03:23.836Z,27.87
2023-01-22T20:05:54.589Z,26.77
2023-01-22T20:08:30.608Z,25.67
2023-01-22T20:11:02.355Z,27.38
2023-01-22T20:13:35.379Z,26.63
2023-01-22T20:16:07.618Z,24.77
2023-01-22T20:18:38.364Z,22.70
2023-01-22T20:21:09.265Z,26.67
2023-01-22T20:23:46.551Z,29.70
2023-01-22T20:26:20.960Z,27.83
2023-01-22T20:28:52.064Z,27.53
2023-01-22T20:31:25.304Z,27.60
2023-01-22T20:33:57.231Z,27.00
2023-01-22T20:36:32.209Z,28.07
2023-01-22T20:39:06.153Z,27.80
2023-01-22T20:41:39.684Z,28.55
2023-01-22T20:44:12.085Z,28.35
2023-01-22T20:46:44.660Z,24.80
2023-01-22T20:49:15.878Z,25.77
2023-01-22T20:51:46.831Z,32.50
2023-01-22T20:54:20.817Z,27.52
2023-01-22T20:56:51.600Z,31.65
2023-01-22T20:59:23.614Z,32.08
2023-01-22T21:01:54.548Z,30.42
2023-01-22T21:04:25.264Z,32.43
2023-01-22T21:06:56.548Z,28.23
2023-01-22T21:09:31.003Z,26.20
2023-01-22T21:12:02.059Z,29.73
2023-01-22T21:14:33.507Z,31.70
2023-01-22T21:17:04.332Z,27.52
2023-01-22T21:19:35.197Z,31.50
2023-01-22T21:22:06.873Z,31.17
2023-01-22T21:24:40.332Z,29.60
2023-01-22T21:27:11.135Z,32.40
2023-01-22T21:29:42.611Z,31.23
2023-01-22T21:32:15.382Z,31.17
2023-01-22T21:34:46.193Z,34.97
2023-01-22T21:37:16.891Z,34.07
2023-01-22T21:39:50.370Z,31.95
2023-01-22T21:42:33.590Z,33.28
2023-01-22T21:45:16.771Z,31.03
2023-01-22T21:47:47.617Z,29.33
2023-01-22T21:50:19.222Z,29.47
2023-01-22T21:52:50.248Z,31.55
2023-01-22T21:55:23.990Z,31.30
2023-01-22T21:57:59.957Z,31.00
2023-01-22T22:00:30.909Z,36.23
2023-01-22T22:03:02.098Z,29.00
2023-01-22T22:05:34.997Z,28.73
2023-01-22T22:08:09.193Z,28.73
2023-01-22T22:10:42.639Z,30.53
2023-01-22T22:13:13.366Z,31.83
2023-01-22T22:15:44.572Z,30.35
2023-01-22T22:18:15.845Z,27.92
2023-01-22T22:20:46.645Z,28.27
2023-01-22T22:23:17.377Z,34.37
2023-01-22T22:25:52.100Z,35.30
2023-01-22T22:28:22.934Z,30.30
2023-01-22T22:30:57.024Z,29.93
2023-01-22T22:33:29.416Z,31.10
2023-01-22T22:36:00.278Z,30.03
2023-01-22T22:38:31.321Z,26.50
2023-01-22T22:41:07.369Z,31.60
2023-01-22T22:43:42.613Z,33.53
2023-01-22T22:46:16.235Z,29.42
2023-01-22T22:48:48.461Z,26.33
2023-01-22T22:51:23.543Z,30.80
2023-01-22T22:53:56.450Z,30.00
2023-01-22T22:56:31.175Z,34.13
2023-01-22T22:59:03.529Z,28.90
2023-01-22T23:01:37.743Z,32.00
2023-01-22T23:04:09.603Z,29.37
2023-01-22T23:06:40.575Z,30.13
2023-01-22T23:09:12.569Z,30.57
2023-01-22T23:11:46.386Z,30.60
2023-01-22T23:14:19.788Z,32.80
2023-01-22T23:16:51.433Z,29.20
2023-01-22T23:19:24.601Z,28.83
2023-01-22T23:21:57.332Z,26.70
2023-01-22T23:24:28.841Z,28.33
2023-01-22T23:27:02.193Z,25.45
2023-01-22T23:29:36.078Z,29.17
2023-01-22T23:32:07.105Z,26.02
2023-01-22T23:34:41.347Z,25.08
2023-01-22T23:37:12.888Z,27.27
2023-01-22T23:39:43.569Z,22.90
2023-01-22T23:42:17.125Z,25.23
2023-01-22T23:44:47.831Z,24.40
2023-01-22T23:47:19.909Z,23.60
2023-01-22T23:49:50.611Z,22.25
2023-01-22T23:52:21.760Z,29.70
2023-01-22T23:54:54.917Z,24.00
2023-01-22T23:57:28.326Z,21.43
